Time;durP1;ratioP1;P1;durP2;ratioP2;P2;SDS_P1;SDS_P2;PMS_P1;PMS_P2;Temp;Humidity;BMP_temperature;BMP_pressure;BME280_temperature;BME280_humidity;BME280_pressure;Samples;Min_cycle;Max_cycle;Signal;HPM_P1;HPM_P2
2021/08/28 00:01:28;;;;;;;5.43;3.60;;;;;;;13.99;77.92;99644.38;4749402;30;20055;-62
2021/08/28 00:03:54;;;;;;;6.07;3.08;;;;;;;13.98;77.81;99643.56;4750781;30;20056;-63
2021/08/28 00:06:20;;;;;;;7.72;3.28;;;;;;;13.99;77.88;99653.16;4750564;30;20044;-62
2021/08/28 00:08:46;;;;;;;5.68;3.20;;;;;;;13.96;78.01;99645.66;4734563;30;20084;-62
2021/08/28 00:11:11;;;;;;;6.25;3.58;;;;;;;13.93;78.41;99634.72;4750414;30;20065;-62
2021/08/28 00:13:39;;;;;;;7.15;3.50;;;;;;;13.92;78.47;99647.25;4750592;30;20523;-63
2021/08/28 00:16:05;;;;;;;9.98;3.78;;;;;;;13.89;78.66;99647.75;4750480;30;20086;-61
2021/08/28 00:18:31;;;;;;;7.18;3.53;;;;;;;13.88;78.58;99650.66;4750463;30;20048;-63
2021/08/28 00:20:56;;;;;;;6.55;3.95;;;;;;;13.84;78.45;99647.69;4750766;30;20052;-62
2021/08/28 00:23:22;;;;;;;9.68;3.88;;;;;;;13.80;78.23;99647.41;4750659;30;20062;-61
2021/08/28 00:25:48;;;;;;;6.20;3.40;;;;;;;13.81;78.40;99654.31;4750744;30;20063;-62
2021/08/28 00:28:14;;;;;;;9.15;3.50;;;;;;;13.81;78.60;99657.00;4750924;30;20052;-61
2021/08/28 00:30:53;;;;;;;6.07;3.60;;;;;;;13.79;78.20;99656.44;4750575;30;20056;-61
2021/08/28 00:33:18;;;;;;;9.30;3.17;;;;;;;13.77;78.68;99652.44;4750669;30;20048;-61
2021/08/28 00:35:44;;;;;;;5.43;3.35;;;;;;;13.75;78.61;99647.34;4734723;30;20072;-60
2021/08/28 00:38:10;;;;;;;6.78;3.30;;;;;;;13.74;78.61;99664.41;4750771;30;20044;-61
2021/08/28 00:40:37;;;;;;;5.90;3.28;;;;;;;13.74;78.35;99658.28;4750400;30;20166;-61
2021/08/28 00:43:04;;;;;;;7.57;3.70;;;;;;;13.72;78.60;99668.38;4720168;30;20488;-61
2021/08/28 00:45:36;;;;;;;6.70;3.25;;;;;;;13.71;78.61;99654.25;4734589;30;20074;-62
2021/08/28 00:48:05;;;;;;;5.30;2.92;;;;;;;13.73;77.87;99659.31;4734776;30;20147;-61
2021/08/28 00:50:34;;;;;;;7.43;3.10;;;;;;;13.72;78.27;99658.50;4750774;30;20538;-61
2021/08/28 00:53:05;;;;;;;5.77;3.27;;;;;;;13.73;78.08;99659.31;4734560;30;20040;-61
2021/08/28 00:55:32;;;;;;;9.15;3.92;;;;;;;13.73;77.67;99645.97;4750621;30;20512;-62
2021/08/28 00:57:59;;;;;;;9.35;3.80;;;;;;;13.72;77.93;99644.38;4734346;30;20056;-61
2021/08/28 01:00:26;;;;;;;6.95;3.83;;;;;;;13.71;77.82;99664.09;4734723;30;20060;-62
2021/08/28 01:02:53;;;;;;;5.93;3.50;;;;;;;13.73;78.09;99657.44;4734541;30;20081;-61
2021/08/28 01:05:25;;;;;;;7.30;3.30;;;;;;;13.73;77.89;99664.63;4734508;30;20149;-61
2021/08/28 01:08:15;;;;;;;5.90;3.58;;;;;;;13.72;77.72;99663.03;4737309;30;20477;-61
2021/08/28 01:11:04;;;;;;;7.18;3.25;;;;;;;13.69;77.75;99666.19;4737595;30;20060;-61
2021/08/28 01:13:39;;;;;;;5.15;3.28;;;;;;;13.67;77.56;99666.44;4724001;30;20640;-61
2021/08/28 01:16:08;;;;;;;6.32;3.20;;;;;;;13.69;77.00;99667.00;4737636;30;20051;-60
2021/08/28 01:18:39;;;;;;;8.02;3.40;;;;;;;13.68;77.30;99665.41;4709431;30;20052;-61
2021/08/28 01:21:18;;;;;;;10.88;3.40;;;;;;;13.66;77.22;99664.03;4722924;30;20534;-61
2021/08/28 01:24:22;;;;;;;7.50;3.20;;;;;;;13.67;77.55;99665.63;4716025;30;20052;-61
2021/08/28 01:27:30;;;;;;;5.60;3.15;;;;;;;13.64;77.63;99669.59;4703155;30;20049;-61
2021/08/28 01:29:57;;;;;;;9.75;3.38;;;;;;;13.63;77.59;99681.31;4714890;30;20064;-62
2021/08/28 01:32:23;;;;;;;5.38;3.10;;;;;;;13.62;77.67;99677.84;4753360;30;20146;-61
2021/08/28 01:34:49;;;;;;;7.05;3.28;;;;;;;13.62;77.48;99677.06;4737250;30;20143;-62
2021/08/28 01:37:21;;;;;;;7.25;3.15;;;;;;;13.56;77.22;99676.19;4737503;30;20109;-62
2021/08/28 01:40:01;;;;;;;11.15;3.38;;;;;;;13.59;77.04;99680.22;4737203;30;20079;-62
2021/08/28 01:42:33;;;;;;;4.45;3.28;;;;;;;13.59;77.11;99680.22;4737785;30;20056;-62
2021/08/28 01:45:00;;;;;;;6.07;3.28;;;;;;;13.54;77.38;99674.84;4722350;30;20055;-61
2021/08/28 01:47:31;;;;;;;7.28;3.25;;;;;;;13.56;77.55;99678.88;4736996;30;20117;-61
2021/08/28 01:49:58;;;;;;;6.13;3.00;;;;;;;13.55;77.26;99676.44;4722251;30;20056;-61
2021/08/28 01:52:24;;;;;;;5.05;3.50;;;;;;;13.54;77.22;99672.16;4737062;30;20138;-59
2021/08/28 01:54:50;;;;;;;5.88;2.80;;;;;;;13.53;77.29;99675.88;4736713;30;20098;-62
2021/08/28 01:57:17;;;;;;;5.43;3.40;;;;;;;13.49;77.67;99666.78;4736672;30;20060;-61
2021/08/28 02:00:01;;;;;;;6.03;3.17;;;;;;;13.44;77.09;99670.19;4736461;30;20062;-62
2021/08/28 02:02:43;;;;;;;4.63;3.08;;;;;;;13.42;76.95;99658.19;4736848;30;20051;-58
2021/08/28 02:05:12;;;;;;;9.15;3.30;;;;;;;13.40;77.55;99669.88;4736721;30;20060;-62
2021/08/28 02:07:48;;;;;;;6.35;3.17;;;;;;;13.38;77.47;99663.19;4737088;30;20064;-61
2021/08/28 02:10:17;;;;;;;6.82;3.47;;;;;;;13.34;77.22;99668.22;4736558;30;20056;-61
2021/08/28 02:12:53;;;;;;;5.13;2.72;;;;;;;13.30;77.54;99667.09;4736462;30;20059;-60
2021/08/28 02:15:42;;;;;;;8.40;2.90;;;;;;;13.31;77.33;99671.38;4736640;30;20056;-62
2021/08/28 02:18:32;;;;;;;6.50;3.17;;;;;;;13.29;77.48;99668.13;4736719;30;20052;-62
2021/08/28 02:21:24;;;;;;;4.90;3.13;;;;;;;13.26;77.63;99676.63;4739113;30;20132;-61
2021/08/28 02:24:04;;;;;;;7.32;3.08;;;;;;;13.27;77.53;99667.59;4721846;30;20182;-62
2021/08/28 02:26:39;;;;;;;3.50;3.08;;;;;;;13.26;77.16;99671.31;4722143;30;20131;-62
2021/08/28 02:29:17;;;;;;;5.57;3.20;;;;;;;13.19;77.56;99668.00;4736495;30;20515;-62
2021/08/28 02:31:46;;;;;;;4.38;2.80;;;;;;;13.24;77.67;99672.59;4736621;30;20527;-62
2021/08/28 02:34:16;;;;;;;5.55;3.38;;;;;;;13.22;77.32;99675.50;4736143;30;20508;-62
2021/08/28 02:36:45;;;;;;;5.18;3.10;;;;;;;13.23;77.09;99673.63;4736380;30;20048;-61
2021/08/28 02:39:14;;;;;;;3.33;2.67;;;;;;;13.21;76.99;99687.19;4721506;30;20048;-62
2021/08/28 02:41:42;;;;;;;6.72;3.40;;;;;;;13.18;77.82;99674.38;4721571;30;20052;-62
2021/08/28 02:44:10;;;;;;;4.13;2.83;;;;;;;13.18;77.50;99679.72;4721516;30;20101;-61
2021/08/28 02:46:36;;;;;;;5.65;3.03;;;;;;;13.17;76.68;99684.19;4735974;30;20190;-61
2021/08/28 02:49:10;;;;;;;4.18;3.15;;;;;;;13.21;76.81;99686.38;4735929;30;20059;-61
2021/08/28 02:51:39;;;;;;;4.57;3.15;;;;;;;13.25;76.79;99698.97;4721632;30;20085;-62
2021/08/28 02:54:05;;;;;;;7.85;3.13;;;;;;;13.27;76.50;99686.25;4721280;30;20097;-61
2021/08/28 02:56:32;;;;;;;4.57;2.60;;;;;;;13.35;76.11;99685.81;4706700;30;20135;-62
2021/08/28 02:58:59;;;;;;;4.90;3.20;;;;;;;13.45;75.68;99684.31;4735816;30;20578;-62
2021/08/28 03:01:28;;;;;;;4.55;2.92;;;;;;;13.44;76.17;99677.38;4735554;30;20044;-62
2021/08/28 03:03:56;;;;;;;7.90;3.42;;;;;;;13.43;75.83;99681.91;4735791;30;20044;-62
2021/08/28 03:06:25;;;;;;;8.15;3.30;;;;;;;13.37;75.89;99675.69;4735591;30;20059;-61
2021/08/28 03:08:51;;;;;;;8.45;3.55;;;;;;;13.43;75.59;99687.22;4735547;30;20067;-62
2021/08/28 03:11:19;;;;;;;6.18;3.45;;;;;;;13.47;75.43;99688.34;4751380;30;20044;-62
2021/08/28 03:13:47;;;;;;;5.10;2.97;;;;;;;13.50;75.41;99684.34;4735514;30;20059;-61
2021/08/28 03:16:21;;;;;;;7.47;3.20;;;;;;;13.59;75.01;99683.69;4735371;30;20116;-61
2021/08/28 03:18:49;;;;;;;6.40;3.10;;;;;;;13.74;74.60;99683.03;4735570;30;20173;-62
2021/08/28 03:21:16;;;;;;;5.60;3.30;;;;;;;13.76;74.39;99690.78;4735476;30;20079;-61
2021/08/28 03:23:44;;;;;;;9.07;3.47;;;;;;;13.82;74.02;99700.41;4735745;30;20411;-62
2021/08/28 03:26:12;;;;;;;7.97;3.33;;;;;;;13.92;73.40;99687.22;4735282;30;20048;-61
2021/08/28 03:28:38;;;;;;;4.90;3.20;;;;;;;14.01;73.03;99696.38;4735204;30;20573;-62
2021/08/28 03:31:04;;;;;;;4.45;3.40;;;;;;;14.06;73.03;99701.75;4735019;30;20082;-61
2021/08/28 03:33:31;;;;;;;5.97;3.22;;;;;;;14.22;72.42;99707.22;4720653;30;20142;-61
2021/08/28 03:35:59;;;;;;;6.20;3.30;;;;;;;14.31;71.89;99703.03;4735179;30;20199;-61
2021/08/28 03:38:25;;;;;;;7.60;3.40;;;;;;;14.46;71.38;99715.69;4720761;30;20100;-61
2021/08/28 03:40:55;;;;;;;5.53;3.20;;;;;;;14.54;71.07;99710.72;4721219;30;20503;-61
2021/08/28 03:43:21;;;;;;;6.63;3.15;;;;;;;14.64;70.81;99709.16;4735435;30;20063;-62
2021/08/28 03:45:49;;;;;;;7.97;3.70;;;;;;;14.66;70.92;99715.88;4750981;30;20059;-60
2021/08/28 03:48:16;;;;;;;5.30;3.35;;;;;;;14.72;70.23;99712.16;4720294;30;20074;-61
2021/08/28 03:50:42;;;;;;;7.95;3.60;;;;;;;14.85;69.49;99708.25;4735023;30;20072;-62
2021/08/28 03:53:09;;;;;;;7.03;3.78;;;;;;;14.89;69.91;99713.88;4735103;30;20473;-62
2021/08/28 03:55:35;;;;;;;7.70;3.92;;;;;;;14.86;69.36;99712.53;4735043;30;20056;-62
2021/08/28 03:58:00;;;;;;;5.25;3.53;;;;;;;14.76;69.39;99704.44;4735029;30;20044;-62
2021/08/28 04:00:28;;;;;;;5.55;3.60;;;;;;;14.69;70.22;99711.88;4734914;30;20048;-62
2021/08/28 04:03:03;;;;;;;7.47;3.45;;;;;;;14.58;70.07;99705.66;4749602;30;20051;-62
2021/08/28 04:05:30;;;;;;;7.95;3.17;;;;;;;14.50;70.62;99712.25;4734971;30;20056;-62
2021/08/28 04:08:08;;;;;;;4.93;2.92;;;;;;;14.67;69.38;99714.78;4736410;30;20085;-61
2021/08/28 04:10:39;;;;;;;6.90;3.22;;;;;;;14.82;69.23;99718.63;4734710;30;20048;-62
2021/08/28 04:13:06;;;;;;;6.55;3.22;;;;;;;14.76;69.48;99715.13;4734834;30;20049;-61
2021/08/28 04:15:32;;;;;;;6.32;3.15;;;;;;;14.87;69.20;99710.66;4751224;30;20056;-62
2021/08/28 04:18:15;;;;;;;5.88;3.83;;;;;;;14.94;68.56;99711.22;4734801;30;20568;-62
2021/08/28 04:20:45;;;;;;;5.03;2.85;;;;;;;15.04;67.92;99716.63;4734793;30;20052;-59
2021/08/28 04:23:18;;;;;;;4.75;2.80;;;;;;;15.20;67.49;99699.63;4734822;30;20063;-60
2021/08/28 04:26:03;;;;;;;7.35;2.90;;;;;;;15.26;67.00;99699.66;4749239;30;20052;-60
2021/08/28 04:28:33;;;;;;;4.72;2.95;;;;;;;15.28;66.74;99702.88;4734693;30;20086;-62
2021/08/28 04:30:59;;;;;;;4.78;3.40;;;;;;;15.33;66.52;99708.25;4719995;30;20101;-62
2021/08/28 04:33:26;;;;;;;6.35;3.00;;;;;;;15.29;66.54;99712.47;4734759;30;20052;-61
2021/08/28 04:35:52;;;;;;;6.53;3.20;;;;;;;15.39;66.15;99705.31;4750581;30;20052;-63
2021/08/28 04:38:18;;;;;;;4.95;3.13;;;;;;;15.35;66.13;99711.44;4749403;30;20496;-62
2021/08/28 04:40:46;;;;;;;4.88;2.80;;;;;;;15.32;66.11;99711.97;4734568;30;20198;-62
2021/08/28 04:43:12;;;;;;;6.13;3.17;;;;;;;15.26;66.28;99721.03;4754010;30;20127;-61
2021/08/28 04:45:58;;;;;;;5.55;2.88;;;;;;;15.11;66.69;99706.53;4716429;30;20061;-62
2021/08/28 04:48:32;;;;;;;4.43;2.75;;;;;;;15.05;66.93;99712.91;4701886;30;20065;-63
2021/08/28 04:51:04;;;;;;;12.27;3.92;;;;;;;15.08;67.36;99712.38;4716364;30;20118;-62
2021/08/28 04:53:30;;;;;;;6.68;3.10;;;;;;;15.03;67.01;99712.38;4701781;30;20544;-61
2021/08/28 04:55:56;;;;;;;5.20;3.05;;;;;;;15.15;66.74;99707.63;4716337;30;20098;-63
2021/08/28 04:58:22;;;;;;;4.97;2.92;;;;;;;15.39;65.96;99721.34;4716184;30;20090;-61
2021/08/28 05:01:08;;;;;;;5.20;3.03;;;;;;;15.45;65.25;99700.81;4707292;30;20520;-62
2021/08/28 05:04:03;;;;;;;8.40;3.25;;;;;;;15.54;64.48;99709.13;4712233;30;20176;-61
2021/08/28 05:06:29;;;;;;;4.82;2.97;;;;;;;15.60;64.35;99708.06;4716191;30;20168;-61
2021/08/28 05:08:55;;;;;;;5.60;2.95;;;;;;;15.64;64.48;99704.59;4716147;30;20142;-60
2021/08/28 05:11:20;;;;;;;6.00;3.08;;;;;;;15.71;64.56;99711.63;4701470;30;20053;-62
2021/08/28 05:13:46;;;;;;;6.43;2.72;;;;;;;15.56;64.77;99710.47;4715973;30;20049;-62
2021/08/28 05:16:13;;;;;;;6.90;2.85;;;;;;;15.49;65.05;99704.56;4701286;30;20089;-61
2021/08/28 05:18:39;;;;;;;7.53;2.85;;;;;;;15.47;65.02;99704.03;4716020;30;20594;-63
2021/08/28 05:21:08;;;;;;;12.55;3.67;;;;;;;15.43;65.56;99706.41;4701319;30;20630;-63
2021/08/28 05:23:52;;;;;;;8.13;3.00;;;;;;;15.53;65.24;99694.97;4741885;30;20064;-63
2021/08/28 05:26:38;;;;;;;6.10;2.53;;;;;;;15.38;65.02;99711.75;4739676;30;20507;-63
2021/08/28 05:29:04;;;;;;;8.00;2.90;;;;;;;15.44;65.05;99692.00;4753051;30;20052;-65
2021/08/28 05:31:30;;;;;;;5.32;2.75;;;;;;;15.41;64.64;99695.19;4753351;30;20048;-62
2021/08/28 05:33:59;;;;;;;4.13;2.70;;;;;;;15.45;64.93;99695.47;4737144;30;20052;-64
2021/08/28 05:36:44;;;;;;;3.20;2.45;;;;;;;15.32;64.89;99696.75;4732957;30;20061;-63
2021/08/28 05:39:49;;;;;;;6.07;2.70;;;;;;;15.14;65.04;99689.97;4698140;30;20558;-69
2021/08/28 05:42:17;;;;;;;5.35;2.58;;;;;;;15.16;65.33;99703.88;4697804;30;20069;-63
2021/08/28 05:44:43;;;;;;;3.75;2.80;;;;;;;15.17;65.86;99694.81;4714607;30;20084;-62
2021/08/28 05:47:09;;;;;;;5.47;2.80;;;;;;;15.21;65.36;99693.25;4718167;30;20454;-62
2021/08/28 05:49:36;;;;;;;4.22;2.95;;;;;;;15.21;65.63;99705.78;4732949;30;20155;-63
2021/08/28 05:52:06;;;;;;;6.53;2.95;;;;;;;15.27;65.68;99702.06;4732452;30;20051;-63
2021/08/28 05:54:32;;;;;;;8.13;2.90;;;;;;;15.33;65.64;99697.56;4718144;30;20068;-63
2021/08/28 05:56:58;;;;;;;9.13;3.25;;;;;;;15.33;65.81;99697.56;4718136;30;20094;-63
2021/08/28 05:59:24;;;;;;;6.50;3.15;;;;;;;15.28;65.21;99694.88;4718295;30;20563;-63
2021/08/28 06:01:52;;;;;;;4.22;2.50;;;;;;;15.28;64.31;99686.84;4717917;30;20088;-64
2021/08/28 06:04:19;;;;;;;6.75;2.72;;;;;;;15.33;64.49;99695.69;4718002;30;20055;-63
2021/08/28 06:07:03;;;;;;;3.88;2.63;;;;;;;15.41;64.97;99691.69;4720074;30;20073;-63
2021/08/28 06:09:47;;;;;;;3.42;2.92;;;;;;;15.54;64.09;99699.25;4732481;30;20083;-63
2021/08/28 06:12:32;;;;;;;4.63;2.45;;;;;;;15.59;63.41;99693.13;4707755;30;20076;-62
2021/08/28 06:15:17;;;;;;;5.30;2.65;;;;;;;15.65;63.41;99689.41;4751051;30;20217;-63
2021/08/28 06:17:47;;;;;;;5.97;2.80;;;;;;;15.76;63.29;99682.22;4751174;30;20055;-63
2021/08/28 06:20:14;;;;;;;9.70;2.97;;;;;;;15.85;63.28;99684.13;4751194;30;20186;-66
2021/08/28 06:22:40;;;;;;;5.30;2.97;;;;;;;15.92;63.06;99675.84;4731480;30;20135;-62
2021/08/28 06:25:06;;;;;;;6.93;2.72;;;;;;;15.98;62.84;99665.97;4736240;30;20056;-62
2021/08/28 06:27:32;;;;;;;5.80;2.92;;;;;;;16.11;62.95;99673.44;4736165;30;20539;-63
2021/08/28 06:30:02;;;;;;;7.80;3.30;;;;;;;16.17;63.02;99669.69;4750749;30;20052;-63
2021/08/28 06:32:28;;;;;;;5.25;2.75;;;;;;;16.27;63.34;99676.94;4736197;30;20052;-64
2021/08/28 06:34:55;;;;;;;4.82;2.92;;;;;;;16.29;61.84;99662.19;4750621;30;20060;-64
2021/08/28 06:37:30;;;;;;;9.45;3.60;;;;;;;16.35;62.40;99661.16;4735502;30;20185;-63
2021/08/28 06:40:34;;;;;;;3.78;2.95;;;;;;;16.42;60.60;99660.88;4714603;30;20139;-62
2021/08/28 06:43:19;;;;;;;5.20;2.80;;;;;;;16.48;60.88;99659.00;4714158;30;20056;-63
2021/08/28 06:46:03;;;;;;;5.28;2.78;;;;;;;16.45;60.66;99663.00;4740841;30;20567;-64
2021/08/28 06:48:47;;;;;;;6.82;2.85;;;;;;;16.42;60.23;99655.53;4751357;30;20485;-63
2021/08/28 06:51:32;;;;;;;9.18;2.80;;;;;;;16.41;59.96;99643.19;4750819;30;20432;-64
2021/08/28 06:54:17;;;;;;;4.53;2.88;;;;;;;16.50;59.82;99655.00;4711334;30;20099;-63
2021/08/28 06:57:02;;;;;;;8.85;3.15;;;;;;;16.57;60.16;99652.03;4751407;30;20059;-65
2021/08/28 06:59:46;;;;;;;8.00;3.13;;;;;;;16.66;60.36;99655.75;4751499;30;20156;-65
2021/08/28 07:02:41;;;;;;;11.70;2.97;;;;;;;16.76;60.59;99658.44;4739895;30;20139;-65
2021/08/28 07:05:08;;;;;;;4.18;2.65;;;;;;;16.80;59.74;99656.81;4735010;30;20545;-64
2021/08/28 07:07:41;;;;;;;6.47;2.90;;;;;;;16.82;59.89;99667.25;4749604;30;20085;-63
2021/08/28 07:10:08;;;;;;;6.85;2.97;;;;;;;16.84;59.35;99664.31;4735675;30;20058;-65
2021/08/28 07:12:35;;;;;;;5.05;2.90;;;;;;;16.90;59.55;99671.25;4735447;30;20048;-64
2021/08/28 07:15:01;;;;;;;4.88;2.85;;;;;;;16.90;59.21;99660.56;4735120;30;20427;-67
2021/08/28 07:17:48;;;;;;;5.60;2.80;;;;;;;16.94;59.25;99664.28;4735280;30;20142;-64
2021/08/28 07:20:14;;;;;;;6.63;3.28;;;;;;;16.90;58.77;99664.03;4720529;30;20082;-66
2021/08/28 07:22:41;;;;;;;7.72;2.85;;;;;;;16.97;58.35;99667.22;4734447;30;20065;-65
2021/08/28 07:25:18;;;;;;;9.93;3.15;;;;;;;17.09;58.82;99663.41;4721748;30;20079;-65
2021/08/28 07:27:44;;;;;;;8.45;3.22;;;;;;;17.21;57.91;99658.56;4749844;30;20040;-65
2021/08/28 07:30:29;;;;;;;9.43;3.90;;;;;;;17.18;57.96;99659.94;4750777;30;20060;-65
2021/08/28 07:32:56;;;;;;;4.07;2.90;;;;;;;17.30;57.99;99659.59;4749741;30;20320;-66
2021/08/28 07:35:22;;;;;;;4.93;3.15;;;;;;;17.42;57.32;99662.75;4734844;30;20087;-64
2021/08/28 07:37:48;;;;;;;5.97;2.63;;;;;;;17.40;56.58;99658.75;4734451;30;20134;-65
2021/08/28 07:40:14;;;;;;;6.15;3.05;;;;;;;17.43;56.29;99660.88;4749553;30;20077;-66
2021/08/28 07:42:40;;;;;;;9.20;3.55;;;;;;;17.47;56.87;99662.75;4734947;30;20044;-64
2021/08/28 07:45:07;;;;;;;7.05;2.67;;;;;;;17.45;56.80;99662.22;4749359;30;20060;-62
2021/08/28 07:47:53;;;;;;;3.70;2.30;;;;;;;17.37;55.89;99662.78;4713192;30;20061;-63
2021/08/28 07:50:20;;;;;;;3.13;2.40;;;;;;;17.36;55.74;99660.38;4713287;30;20057;-64
2021/08/28 07:52:46;;;;;;;3.72;2.35;;;;;;;17.32;55.51;99645.91;4697971;30;20065;-62
2021/08/28 07:55:14;;;;;;;5.10;2.25;;;;;;;17.31;55.77;99647.81;4713221;30;20068;-65
2021/08/28 07:57:41;;;;;;;4.50;2.20;;;;;;;17.32;55.81;99649.41;4669939;30;20057;-64
2021/08/28 08:00:09;;;;;;;8.93;2.55;;;;;;;17.42;55.84;99635.16;4684189;30;20143;-65
2021/08/28 08:02:39;;;;;;;8.75;2.40;;;;;;;17.52;55.66;99635.09;4685267;30;20057;-61
2021/08/28 08:05:15;;;;;;;4.80;2.22;;;;;;;17.61;55.33;99635.31;4698144;30;20440;-61
2021/08/28 08:08:03;;;;;;;6.85;2.65;;;;;;;17.68;55.34;99639.28;4694978;30;20054;-65
2021/08/28 08:10:48;;;;;;;10.32;3.00;;;;;;;17.79;55.66;99640.03;4683435;30;20198;-65
2021/08/28 08:13:46;;;;;;;5.20;2.55;;;;;;;17.76;55.24;99639.78;4685808;30;20066;-64
2021/08/28 08:16:32;;;;;;;4.22;2.25;;;;;;;17.74;55.51;99641.94;4687399;30;20123;-63
2021/08/28 08:19:21;;;;;;;9.52;2.95;;;;;;;17.74;55.37;99652.69;4713515;30;20075;-62
2021/08/28 08:22:07;;;;;;;5.03;2.40;;;;;;;17.78;55.18;99645.69;4717957;30;20053;-66
2021/08/28 08:25:09;;;;;;;5.90;2.30;;;;;;;17.87;54.90;99638.66;4667054;30;20058;-63
2021/08/28 08:27:54;;;;;;;4.35;2.55;;;;;;;17.88;54.91;99649.13;4668144;30;20505;-63
2021/08/28 08:30:40;;;;;;;9.45;2.85;;;;;;;18.01;54.87;99638.84;4695462;30;20053;-62
2021/08/28 08:33:15;;;;;;;7.88;2.80;;;;;;;18.05;54.95;99635.28;4698159;30;20097;-63
2021/08/28 08:35:41;;;;;;;4.30;2.42;;;;;;;18.06;54.48;99628.88;4697780;30;20050;-64
2021/08/28 08:38:09;;;;;;;5.05;2.42;;;;;;;18.09;55.10;99639.03;4685537;30;20053;-63
2021/08/28 08:40:35;;;;;;;5.32;2.55;;;;;;;18.14;54.60;99630.13;4686747;30;20517;-64
2021/08/28 08:43:04;;;;;;;6.25;3.35;;;;;;;18.21;54.69;99636.00;4686728;30;20414;-64
2021/08/28 08:45:30;;;;;;;5.78;2.40;;;;;;;18.19;53.94;99638.16;4700917;30;20054;-63
2021/08/28 08:47:57;;;;;;;9.23;2.60;;;;;;;18.16;53.40;99636.03;4700943;30;20112;-62
2021/08/28 08:50:24;;;;;;;5.22;2.20;;;;;;;18.10;53.10;99640.63;4700624;30;20099;-65
2021/08/28 08:52:57;;;;;;;4.25;2.13;;;;;;;18.10;53.45;99635.25;4686892;30;20061;-63
2021/08/28 08:55:33;;;;;;;6.03;2.35;;;;;;;18.13;53.93;99623.16;4673791;30;20057;-64
2021/08/28 08:58:00;;;;;;;3.97;2.40;;;;;;;18.20;53.79;99620.16;4707354;30;20050;-63
2021/08/28 09:00:28;;;;;;;6.95;2.92;;;;;;;18.35;53.05;99625.38;4739916;30;20524;-62
2021/08/28 09:03:20;;;;;;;7.60;2.40;;;;;;;18.47;53.03;99633.88;4751390;30;20091;-62
2021/08/28 09:05:53;;;;;;;3.50;2.45;;;;;;;18.49;53.26;99630.91;4755512;30;20073;-63
2021/08/28 09:08:19;;;;;;;5.28;2.53;;;;;;;18.45;52.81;99633.34;4725274;30;20090;-63
2021/08/28 09:10:45;;;;;;;8.05;2.42;;;;;;;18.39;52.49;99621.06;4756184;30;20677;-64
2021/08/28 09:13:29;;;;;;;4.50;2.38;;;;;;;18.38;53.37;99619.44;4740149;30;20123;-62
2021/08/28 09:16:04;;;;;;;6.15;2.13;;;;;;;18.38;52.98;99622.94;4754578;30;20143;-63
2021/08/28 09:18:52;;;;;;;3.95;2.70;;;;;;;18.52;53.21;99620.38;4755827;30;20052;-62
2021/08/28 09:21:22;;;;;;;4.17;2.20;;;;;;;18.48;52.83;99614.00;4739868;30;20139;-61
2021/08/28 09:23:49;;;;;;;5.00;2.70;;;;;;;18.54;52.94;99610.16;4755592;30;20044;-62
2021/08/28 09:26:29;;;;;;;4.18;2.42;;;;;;;18.59;52.46;99606.66;4755472;30;20052;-60
2021/08/28 09:28:55;;;;;;;5.90;3.20;;;;;;;18.69;52.84;99611.09;4752631;30;20048;-64
2021/08/28 09:31:44;;;;;;;4.85;2.42;;;;;;;18.79;51.73;99605.63;4752792;30;20101;-64
2021/08/28 09:34:22;;;;;;;3.83;2.60;;;;;;;18.80;51.90;99620.69;4751428;30;20571;-64
2021/08/28 09:37:01;;;;;;;6.85;2.58;;;;;;;18.74;51.52;99621.81;4752719;30;20048;-64
2021/08/28 09:39:50;;;;;;;5.15;2.40;;;;;;;18.70;52.30;99623.41;4752766;30;20550;-61
2021/08/28 09:42:21;;;;;;;4.35;3.03;;;;;;;18.72;51.89;99611.31;4752847;30;20141;-64
2021/08/28 09:44:49;;;;;;;4.68;2.67;;;;;;;18.74;51.50;99603.81;4751365;30;20048;-63
2021/08/28 09:47:17;;;;;;;3.85;2.20;;;;;;;18.69;50.68;99609.19;4752507;30;20052;-64
2021/08/28 09:49:47;;;;;;;4.07;2.33;;;;;;;18.65;51.58;99605.50;4752211;30;20056;-66
2021/08/28 09:52:18;;;;;;;3.63;2.38;;;;;;;18.69;51.80;99605.72;4751361;30;20511;-66
2021/08/28 09:54:44;;;;;;;4.05;2.40;;;;;;;18.69;50.94;99603.03;4752508;30;20052;-63
2021/08/28 09:57:11;;;;;;;10.02;2.97;;;;;;;18.69;51.26;99601.16;4752589;30;20048;-62
2021/08/28 09:59:37;;;;;;;7.88;2.30;;;;;;;18.70;50.01;99610.00;4751146;30;20105;-62
2021/08/28 10:02:05;;;;;;;4.95;2.67;;;;;;;18.78;50.99;99598.66;4752572;30;20453;-62
2021/08/28 10:04:56;;;;;;;4.25;2.90;;;;;;;18.82;51.99;99605.06;4750591;30;20052;-63
2021/08/28 10:07:25;;;;;;;7.47;2.55;;;;;;;18.75;51.83;99585.81;4752226;30;20138;-62
2021/08/28 10:10:02;;;;;;;5.72;2.97;;;;;;;18.76;49.96;99614.25;4752268;30;20048;-66
2021/08/28 10:12:32;;;;;;;5.65;2.53;;;;;;;18.79;49.54;99597.56;4737257;30;20134;-63
2021/08/28 10:14:58;;;;;;;6.32;2.60;;;;;;;18.84;50.34;99587.56;4752034;30;20056;-63
2021/08/28 10:17:26;;;;;;;4.80;2.80;;;;;;;18.83;50.45;99594.03;4752318;30;20048;-62
2021/08/28 10:19:55;;;;;;;3.63;2.55;;;;;;;18.87;50.86;99591.56;4751634;30;20102;-61
2021/08/28 10:22:26;;;;;;;5.07;3.17;;;;;;;18.87;50.53;99578.16;4751976;30;20044;-63
2021/08/28 10:24:57;;;;;;;4.00;2.80;;;;;;;18.83;49.96;99579.81;4751961;30;20059;-63
2021/08/28 10:27:25;;;;;;;4.50;3.20;;;;;;;18.83;50.55;99577.91;4721651;30;20043;-64
2021/08/28 10:29:52;;;;;;;5.10;2.63;;;;;;;18.90;48.87;99582.94;4752134;30;20178;-63
2021/08/28 10:32:19;;;;;;;6.93;2.55;;;;;;;18.98;46.94;99579.63;4751968;30;20056;-64
2021/08/28 10:34:45;;;;;;;4.25;2.60;;;;;;;19.02;48.04;99574.47;4751230;30;20072;-66
2021/08/28 10:37:11;;;;;;;3.55;2.60;;;;;;;19.03;48.98;99568.00;4752073;30;20048;-65
2021/08/28 10:39:37;;;;;;;4.65;2.38;;;;;;;19.11;48.41;99571.94;4750641;30;20051;-64
2021/08/28 10:42:06;;;;;;;4.15;2.65;;;;;;;19.18;48.06;99575.88;4751839;30;20134;-64
2021/08/28 10:44:33;;;;;;;5.65;2.45;;;;;;;19.20;47.45;99583.63;4750557;30;20067;-64
2021/08/28 10:47:13;;;;;;;4.65;2.78;;;;;;;19.19;45.52;99576.66;4721275;30;20048;-64
2021/08/28 10:50:09;;;;;;;3.50;2.65;;;;;;;19.22;45.89;99560.75;4749882;30;20092;-62
2021/08/28 10:52:40;;;;;;;4.68;2.45;;;;;;;19.20;48.19;99575.56;4751877;30;20047;-63
2021/08/28 10:55:10;;;;;;;4.75;2.80;;;;;;;19.25;48.37;99579.00;4751234;30;20385;-63
2021/08/28 10:57:36;;;;;;;;;;;;;;;19.30;48.59;99572.75;4735900;30;20108;-63
2021/08/28 11:00:09;;;;;;;8.35;3.00;;;;;;;19.35;47.44;99569.97;4751336;30;19930;-64
2021/08/28 11:02:59;;;;;;;6.07;2.53;;;;;;;19.37;47.34;99567.00;4750301;30;20474;-64
2021/08/28 11:05:32;;;;;;;7.70;2.85;;;;;;;19.40;47.15;99566.44;4735069;30;20143;-63
2021/08/28 11:08:18;;;;;;;6.15;2.40;;;;;;;19.32;46.18;99567.06;4751433;30;20573;-63
2021/08/28 11:11:04;;;;;;;7.95;2.90;;;;;;;19.35;46.87;99567.28;4751633;30;20520;-63
2021/08/28 11:14:09;;;;;;;5.82;2.70;;;;;;;19.40;46.14;99559.16;4732054;30;20063;-63
2021/08/28 11:16:41;;;;;;;5.88;3.20;;;;;;;19.40;46.79;99553.00;4749683;30;20055;-64
2021/08/28 11:19:19;;;;;;;4.32;3.03;;;;;;;19.48;46.98;99569.25;4750883;30;20396;-67
2021/08/28 11:21:47;;;;;;;4.30;2.67;;;;;;;19.39;46.77;99567.53;4751086;30;20055;-67
2021/08/28 11:24:17;;;;;;;4.47;2.30;;;;;;;19.38;46.79;99557.84;4750955;30;20059;-66
2021/08/28 11:26:43;;;;;;;3.08;2.35;;;;;;;19.31;46.99;99568.97;4751240;30;20135;-65
2021/08/28 11:29:26;;;;;;;5.68;3.03;;;;;;;19.37;47.62;99559.75;4750856;30;20060;-66
2021/08/28 11:32:13;;;;;;;7.20;3.20;;;;;;;19.48;47.09;99553.13;4749614;30;20048;-63
2021/08/28 11:34:45;;;;;;;5.78;2.80;;;;;;;19.53;46.63;99549.56;4750020;30;20434;-64
2021/08/28 11:37:23;;;;;;;4.43;2.90;;;;;;;19.47;47.16;99546.16;4749582;30;20496;-63
2021/08/28 11:39:50;;;;;;;8.57;3.15;;;;;;;19.48;47.12;99546.97;4750594;30;20580;-64
2021/08/28 11:42:16;;;;;;;6.60;2.97;;;;;;;19.51;47.35;99547.16;4749437;30;20087;-63
2021/08/28 11:44:46;;;;;;;9.13;2.92;;;;;;;19.44;47.33;99551.31;4749415;30;20043;-63
2021/08/28 11:47:12;;;;;;;8.23;3.20;;;;;;;19.38;47.10;99550.56;4749357;30;20054;-65
2021/08/28 11:49:38;;;;;;;5.53;3.08;;;;;;;19.42;47.67;99548.13;4734060;30;20052;-65
2021/08/28 11:52:08;;;;;;;4.35;3.08;;;;;;;19.44;48.13;99552.13;4748709;30;20055;-63
2021/08/28 11:54:34;;;;;;;4.55;2.80;;;;;;;19.47;47.11;99551.53;4749559;30;20135;-67
2021/08/28 11:57:01;;;;;;;5.95;2.78;;;;;;;19.45;46.56;99542.16;4735022;30;20534;-64
2021/08/28 11:59:34;;;;;;;6.07;3.22;;;;;;;19.46;47.36;99543.75;4750851;30;20060;-66